createdAt,value
2023-04-17T00:00:00.438Z,197.35
2023-04-17T00:00:56.143Z,197.94
2023-04-17T00:01:51.480Z,198.66
2023-04-17T00:02:46.645Z,200.48
2023-04-17T00:03:42.486Z,201.46
2023-04-17T00:04:37.748Z,203.46
2023-04-17T00:05:32.783Z,205.50
2023-04-17T00:06:29.320Z,206.67
2023-04-17T00:07:24.557Z,206.93
2023-04-17T00:08:20.414Z,209.44
2023-04-17T00:09:15.614Z,211.05
2023-04-17T00:10:10.785Z,212.15
2023-04-17T00:11:08.313Z,214.08
2023-04-17T00:12:01.987Z,215.49
2023-04-17T00:12:57.725Z,216.49
2023-04-17T00:13:52.753Z,218.07
2023-04-17T00:14:48.079Z,217.20
2023-04-17T00:15:43.822Z,216.77
2023-04-17T00:16:39.054Z,217.49
2023-04-17T00:17:34.405Z,217.78
2023-04-17T00:18:30.459Z,217.49
2023-04-17T00:19:25.652Z,217.92
2023-04-17T00:20:21.477Z,218.21
2023-04-17T00:21:16.616Z,219.53
2023-04-17T00:22:11.990Z,216.91
2023-04-17T00:23:07.584Z,218.21
2023-04-17T00:24:02.821Z,216.63
2023-04-17T00:24:58.546Z,217.92
2023-04-17T00:25:53.714Z,218.07
2023-04-17T00:26:49.047Z,218.79
2023-04-17T00:27:44.684Z,222.05
2023-04-17T00:28:39.847Z,221.30
2023-04-17T00:29:35.050Z,220.41
2023-04-17T00:30:31.208Z,219.82
2023-04-17T00:31:26.458Z,217.92
2023-04-17T00:32:22.199Z,219.82
2023-04-17T00:33:17.354Z,218.07
2023-04-17T00:34:12.428Z,218.94
2023-04-17T00:35:08.292Z,217.20
2023-04-17T00:36:03.616Z,216.77
2023-04-17T00:36:59.532Z,215.49
2023-04-17T00:37:54.529Z,216.77
2023-04-17T00:38:49.876Z,217.06
2023-04-17T00:39:45.004Z,217.63
2023-04-17T00:40:40.209Z,217.20
2023-04-17T00:41:36.340Z,217.78
2023-04-17T00:42:31.558Z,217.92
2023-04-17T00:43:27.303Z,217.92
2023-04-17T00:44:22.477Z,217.92
2023-04-17T00:45:17.775Z,221.90
2023-04-17T00:46:13.572Z,222.50
2023-04-17T00:47:08.906Z,220.71
2023-04-17T00:48:04.615Z,219.38
2023-04-17T00:48:59.603Z,218.50
2023-04-17T00:49:54.943Z,217.92
2023-04-17T00:50:50.550Z,216.91
2023-04-17T00:51:45.929Z,216.49
2023-04-17T00:52:40.812Z,216.06
2023-04-17T00:53:37.367Z,216.49
2023-04-17T00:54:32.557Z,216.63
2023-04-17T00:55:28.430Z,215.49
2023-04-17T00:56:23.711Z,215.21
2023-04-17T00:57:18.889Z,215.49
2023-04-17T00:58:13.864Z,216.49
2023-04-17T00:59:09.287Z,217.35
2023-04-17T01:00:04.197Z,216.20
2023-04-17T01:00:59.448Z,217.06
2023-04-17T01:01:55.460Z,217.49
2023-04-17T01:02:50.489Z,216.91
2023-04-17T01:03:45.825Z,217.35
2023-04-17T01:04:41.342Z,216.34
2023-04-17T01:05:36.486Z,218.21
2023-04-17T01:06:31.743Z,220.26
2023-04-17T01:07:26.864Z,222.20
2023-04-17T01:08:21.911Z,220.12
2023-04-17T01:09:16.946Z,219.53
2023-04-17T01:10:11.983Z,220.41
2023-04-17T01:11:07.159Z,221.90
2023-04-17T01:12:02.123Z,219.23
2023-04-17T01:12:57.116Z,220.86
2023-04-17T01:13:52.347Z,219.67
2023-04-17T01:14:47.492Z,218.79
2023-04-17T01:15:42.530Z,218.79
2023-04-17T01:16:37.641Z,219.09
2023-04-17T01:17:32.713Z,218.65
2023-04-17T01:18:27.726Z,218.36
2023-04-17T01:19:22.797Z,219.97
2023-04-17T01:20:17.797Z,221.01
2023-04-17T01:21:12.912Z,220.86
2023-04-17T01:22:07.894Z,223.11
2023-04-17T01:23:03.088Z,223.57
2023-04-17T01:23:58.118Z,220.86
2023-04-17T01:24:53.162Z,221.15
2023-04-17T01:25:48.163Z,219.67
2023-04-17T01:26:43.232Z,220.41
2023-04-17T01:27:38.281Z,218.94
2023-04-17T01:28:33.307Z,219.53
2023-04-17T01:29:28.319Z,219.82
2023-04-17T01:30:24.364Z,219.23
2023-04-17T01:31:19.394Z,220.71
2023-04-17T01:32:14.556Z,220.41
2023-04-17T01:33:09.475Z,223.26
2023-04-17T01:34:04.534Z,223.26
2023-04-17T01:34:59.538Z,224.95
2023-04-17T01:35:54.725Z,223.57
2023-04-17T01:36:49.887Z,223.26
2023-04-17T01:37:44.965Z,225.25
2023-04-17T01:38:40.115Z,224.33
2023-04-17T01:39:35.141Z,225.10
2023-04-17T01:40:30.206Z,225.41
2023-04-17T01:41:25.236Z,224.18
2023-04-17T01:42:20.415Z,225.10
2023-04-17T01:43:15.445Z,227.44
2023-04-17T01:44:10.399Z,225.41
2023-04-17T01:45:06.807Z,226.34
2023-04-17T01:46:01.921Z,226.18
2023-04-17T01:46:56.925Z,224.33
2023-04-17T01:47:51.967Z,225.87
2023-04-17T01:48:47.031Z,227.91
2023-04-17T01:49:42.029Z,226.03
2023-04-17T01:50:37.113Z,226.97
2023-04-17T01:51:32.316Z,226.50
2023-04-17T01:52:27.516Z,228.07
2023-04-17T01:53:22.657Z,226.65
2023-04-17T01:54:17.740Z,226.65
2023-04-17T01:55:12.799Z,225.56
2023-04-17T01:56:08.073Z,226.97
2023-04-17T01:57:02.921Z,225.25
2023-04-17T01:57:58.013Z,225.10
2023-04-17T01:58:53.576Z,224.95
2023-04-17T01:59:48.817Z,222.65
2023-04-17T02:00:44.529Z,223.26
2023-04-17T02:01:39.760Z,222.50
2023-04-17T02:02:35.046Z,225.56
2023-04-17T02:03:30.904Z,224.33
2023-04-17T02:04:26.224Z,224.64
2023-04-17T02:05:21.414Z,227.60
2023-04-17T02:06:17.857Z,228.39
2023-04-17T02:07:12.925Z,225.25
2023-04-17T02:08:08.639Z,226.97
2023-04-17T02:09:03.898Z,226.50
2023-04-17T02:09:58.918Z,227.60
2023-04-17T02:10:54.881Z,227.76
2023-04-17T02:11:49.910Z,228.39
2023-04-17T02:12:45.933Z,226.50
2023-04-17T02:13:40.981Z,227.28
2023-04-17T02:14:36.345Z,229.83
2023-04-17T02:15:32.074Z,227.91
2023-04-17T02:16:27.388Z,225.25
2023-04-17T02:17:22.563Z,222.81
2023-04-17T02:18:18.844Z,220.41
2023-04-17T02:19:14.142Z,222.50
2023-04-17T02:20:09.825Z,221.30
2023-04-17T02:21:04.970Z,223.11
2023-04-17T02:22:00.266Z,224.79
2023-04-17T02:22:56.019Z,224.79
2023-04-17T02:23:51.253Z,227.12
2023-04-17T02:24:47.024Z,227.76
2023-04-17T02:25:42.172Z,229.51
2023-04-17T02:26:37.502Z,231.61
2023-04-17T02:27:33.276Z,230.48
2023-04-17T02:28:28.439Z,231.61
2023-04-17T02:29:23.619Z,233.26
2023-04-17T02:30:19.752Z,233.59
2023-04-17T02:31:15.169Z,232.60
2023-04-17T02:32:10.724Z,232.10
2023-04-17T02:33:05.939Z,233.43
2023-04-17T02:34:00.992Z,232.93
2023-04-17T02:34:56.884Z,232.93
2023-04-17T02:35:52.132Z,233.59
2023-04-17T02:36:47.894Z,232.10
2023-04-17T02:37:43.031Z,232.10
2023-04-17T02:38:38.402Z,230.48
2023-04-17T02:39:34.113Z,227.12
2023-04-17T02:40:29.327Z,224.64
2023-04-17T02:41:24.624Z,222.81
2023-04-17T02:42:19.657Z,222.35
2023-04-17T02:43:15.562Z,219.97
2023-04-17T02:44:10.747Z,223.87
2023-04-17T02:45:05.955Z,220.86
2023-04-17T02:46:01.906Z,218.36
2023-04-17T02:46:57.117Z,222.96
2023-04-17T02:47:53.074Z,227.28
2023-04-17T02:48:48.067Z,228.71
2023-04-17T02:49:43.406Z,232.60
2023-04-17T02:50:39.134Z,235.94
2023-04-17T02:51:34.205Z,237.14
2023-04-17T02:52:29.392Z,239.39
2023-04-17T02:53:25.772Z,238.86
2023-04-17T02:54:20.977Z,237.82
2023-04-17T02:55:16.863Z,237.31
2023-04-17T02:56:12.017Z,235.44
2023-04-17T02:57:07.248Z,236.62
2023-04-17T02:58:02.978Z,233.26
2023-04-17T02:58:58.156Z,232.27
2023-04-17T02:59:53.278Z,229.51
2023-04-17T03:00:48.689Z,227.12
2023-04-17T03:01:43.612Z,224.79
2023-04-17T03:02:38.891Z,222.81
2023-04-17T03:03:34.188Z,224.48
2023-04-17T03:04:30.402Z,221.60
2023-04-17T03:05:25.596Z,221.45
2023-04-17T03:06:20.932Z,218.07
2023-04-17T03:07:16.554Z,215.21
2023-04-17T03:08:11.733Z,212.42
2023-04-17T03:09:06.944Z,212.01
2023-04-17T03:10:02.105Z,210.24
2023-04-17T03:10:57.292Z,210.11
2023-04-17T03:11:52.498Z,211.60
2023-04-17T03:12:48.751Z,212.28
2023-04-17T03:13:43.904Z,214.64
2023-04-17T03:14:39.022Z,214.22
2023-04-17T03:15:34.196Z,215.49
2023-04-17T03:16:29.324Z,214.64
2023-04-17T03:17:25.746Z,213.80
2023-04-17T03:18:20.881Z,211.74
2023-04-17T03:19:16.090Z,214.22
2023-04-17T03:20:11.305Z,209.57
2023-04-17T03:21:06.367Z,206.02
2023-04-17T03:22:01.388Z,204.86
2023-04-17T03:22:56.480Z,204.73
2023-04-17T03:23:51.472Z,207.58
2023-04-17T03:24:46.540Z,208.51
2023-04-17T03:25:41.716Z,208.90
2023-04-17T03:26:36.667Z,207.32
2023-04-17T03:27:31.709Z,207.71
2023-04-17T03:28:26.725Z,207.85
2023-04-17T03:29:22.963Z,209.97
2023-04-17T03:30:18.027Z,209.97
2023-04-17T03:31:13.025Z,209.84
2023-04-17T03:32:08.166Z,214.79
2023-04-17T03:33:03.163Z,215.49
2023-04-17T03:33:58.291Z,217.49
2023-04-17T03:34:53.318Z,214.36
2023-04-17T03:35:48.388Z,213.11
2023-04-17T03:36:43.444Z,210.24
2023-04-17T03:37:38.520Z,204.48
2023-04-17T03:38:33.484Z,199.75
2023-04-17T03:39:28.552Z,198.54
2023-04-17T03:40:23.750Z,200.48
2023-04-17T03:41:18.667Z,202.46
2023-04-17T03:42:13.678Z,205.76
2023-04-17T03:43:08.707Z,209.17
2023-04-17T03:44:03.759Z,209.57
2023-04-17T03:44:58.779Z,206.28
2023-04-17T03:45:56.168Z,202.21
2023-04-17T03:46:51.187Z,198.06
2023-04-17T03:47:46.309Z,194.08
2023-04-17T03:48:41.309Z,189.04
2023-04-17T03:49:36.513Z,187.21
2023-04-17T03:50:31.836Z,188.94
2023-04-17T03:51:26.908Z,192.37
2023-04-17T03:52:21.928Z,195.58
2023-04-17T03:53:16.999Z,199.87
2023-04-17T03:54:12.005Z,205.50
2023-04-17T03:55:07.334Z,208.51
2023-04-17T03:56:02.664Z,209.57
2023-04-17T03:56:57.820Z,210.24
2023-04-17T03:57:53.090Z,209.30
2023-04-17T03:58:48.164Z,204.86
2023-04-17T03:59:43.453Z,201.84
2023-04-17T04:00:38.656Z,200.85
2023-04-17T04:01:33.819Z,200.48
2023-04-17T04:02:29.079Z,199.63
2023-04-17T04:03:24.229Z,201.09
2023-04-17T04:04:19.409Z,202.84
2023-04-17T04:05:14.594Z,199.51
2023-04-17T04:06:09.350Z,199.51
2023-04-17T04:07:04.473Z,198.18
2023-04-17T04:07:59.640Z,201.84
2023-04-17T04:08:54.845Z,201.46
2023-04-17T04:09:50.090Z,200.85
2023-04-17T04:10:45.175Z,199.63
2023-04-17T04:11:40.220Z,198.06
2023-04-17T04:12:35.213Z,198.42
2023-04-17T04:13:30.298Z,198.66
2023-04-17T04:14:25.353Z,199.14
2023-04-17T04:15:20.416Z,201.22
2023-04-17T04:16:15.514Z,202.58
2023-04-17T04:17:10.519Z,202.46
2023-04-17T04:18:05.645Z,202.46
2023-04-17T04:19:00.746Z,202.71
2023-04-17T04:19:55.972Z,201.71
2023-04-17T04:20:50.902Z,200.97
2023-04-17T04:21:46.003Z,204.35
2023-04-17T04:22:41.380Z,203.46
2023-04-17T04:23:36.469Z,201.84
2023-04-17T04:24:31.624Z,199.14
2023-04-17T04:25:26.584Z,194.65
2023-04-17T04:26:21.594Z,191.70
2023-04-17T04:27:17.851Z,191.14
2023-04-17T04:28:11.825Z,190.69
2023-04-17T04:29:07.038Z,190.58
2023-04-17T04:30:02.394Z,191.81
2023-04-17T04:30:57.381Z,189.37
2023-04-17T04:31:52.781Z,188.18
2023-04-17T04:32:47.947Z,188.18
2023-04-17T04:33:43.062Z,189.81
2023-04-17T04:34:38.428Z,190.25
2023-04-17T04:35:33.561Z,190.03
2023-04-17T04:36:28.779Z,191.03
2023-04-17T04:37:24.032Z,191.36
2023-04-17T04:38:19.281Z,188.07
2023-04-17T04:39:14.510Z,185.52
2023-04-17T04:40:10.071Z,159.84
2023-04-17T04:41:05.011Z,164.25
2023-04-17T04:42:00.251Z,166.88
2023-04-17T04:42:55.539Z,174.74
2023-04-17T04:43:50.774Z,183.38
2023-04-17T04:44:46.095Z,186.15
2023-04-17T04:45:41.254Z,184.99
2023-04-17T04:46:36.688Z,186.24
2023-04-17T04:47:31.728Z,185.31
2023-04-17T04:48:26.731Z,185.52
2023-04-17T04:49:21.737Z,184.80
2023-04-17T04:50:18.130Z,184.19
2023-04-17T04:51:13.185Z,186.45
2023-04-17T04:52:08.216Z,185.10
2023-04-17T04:53:03.188Z,185.41
2023-04-17T04:53:58.268Z,189.37
2023-04-17T04:54:53.340Z,190.91
2023-04-17T04:55:48.580Z,188.29
2023-04-17T04:56:43.654Z,184.99
2023-04-17T04:57:38.800Z,186.68
2023-04-17T04:58:33.843Z,188.07
2023-04-17T04:59:29.070Z,189.26
2023-04-17T05:00:24.004Z,190.69
2023-04-17T05:01:19.275Z,192.03
2023-04-17T05:02:14.323Z,192.03
2023-04-17T05:03:09.479Z,191.36
2023-04-17T05:04:04.538Z,191.14
2023-04-17T05:04:59.991Z,191.25
2023-04-17T05:05:54.491Z,189.26
2023-04-17T05:06:49.561Z,185.31
2023-04-17T05:07:44.638Z,185.62
2023-04-17T05:08:39.866Z,184.60
2023-04-17T05:09:35.107Z,183.18
2023-04-17T05:10:30.477Z,183.38
2023-04-17T05:11:25.664Z,183.99
2023-04-17T05:12:21.041Z,186.04
2023-04-17T05:13:16.353Z,183.78
2023-04-17T05:14:11.898Z,186.24
2023-04-17T05:15:07.051Z,185.10
2023-04-17T05:16:02.426Z,178.48
2023-04-17T05:16:57.660Z,130.57
2023-04-17T05:17:53.091Z,102.44
2023-04-17T05:18:48.467Z,100.89
2023-04-17T05:19:43.970Z,103.65
2023-04-17T05:20:39.040Z,115.25
2023-04-17T05:21:34.448Z,130.17
2023-04-17T05:22:29.774Z,139.53
2023-04-17T05:23:25.117Z,136.34
2023-04-17T05:24:20.367Z,136.45
2023-04-17T05:25:15.761Z,147.16
2023-04-17T05:26:11.280Z,156.10
2023-04-17T05:27:06.588Z,153.66
2023-04-17T05:28:01.844Z,144.48
2023-04-17T05:28:57.196Z,137.35
2023-04-17T05:29:52.623Z,137.01
2023-04-17T05:30:48.044Z,139.29
2023-04-17T05:31:43.386Z,146.64
2023-04-17T05:32:38.824Z,148.73
2023-04-17T05:33:34.071Z,149.13
2023-04-17T05:34:29.670Z,149.66
2023-04-17T05:35:24.862Z,149.53
2023-04-17T05:36:20.172Z,148.07
2023-04-17T05:37:15.573Z,142.99
2023-04-17T05:38:11.059Z,145.49
2023-04-17T05:39:06.349Z,149.40
2023-04-17T05:40:01.817Z,151.57
2023-04-17T05:40:56.778Z,151.29
2023-04-17T05:41:51.857Z,145.62
2023-04-17T05:42:46.863Z,146.25
2023-04-17T05:43:43.922Z,149.13
2023-04-17T05:44:39.109Z,155.67
2023-04-17T05:45:34.012Z,158.63
2023-04-17T05:46:29.063Z,164.41
2023-04-17T05:47:24.147Z,168.39
2023-04-17T05:48:19.179Z,172.39
2023-04-17T05:49:14.241Z,179.43
2023-04-17T05:50:09.424Z,173.65
2023-04-17T05:51:04.314Z,161.54
2023-04-17T05:51:59.321Z,156.84
2023-04-17T05:52:54.427Z,162.33
2023-04-17T05:53:49.467Z,169.42
2023-04-17T05:54:44.713Z,172.39
2023-04-17T05:55:39.631Z,176.40
2023-04-17T05:56:34.898Z,182.18
2023-04-17T05:57:30.342Z,187.00
2023-04-17T05:58:25.707Z,189.59
2023-04-17T05:59:21.028Z,192.60
2023-04-17T06:00:16.532Z,195.23
2023-04-17T06:01:11.905Z,198.66
2023-04-17T06:02:07.340Z,199.99
2023-04-17T06:03:02.916Z,201.09
2023-04-17T06:03:58.309Z,201.46
2023-04-17T06:04:53.847Z,201.22
2023-04-17T06:05:48.959Z,201.09
2023-04-17T06:06:44.116Z,199.26
2023-04-17T06:07:39.538Z,199.26
2023-04-17T06:08:34.847Z,198.06
2023-04-17T06:09:30.263Z,194.88
2023-04-17T06:10:25.706Z,195.23
2023-04-17T06:11:21.044Z,199.26
2023-04-17T06:12:16.461Z,197.70
2023-04-17T06:13:11.631Z,200.73
2023-04-17T06:14:06.905Z,206.41
2023-04-17T06:15:02.393Z,208.51
2023-04-17T06:15:57.902Z,209.57
2023-04-17T06:16:53.088Z,203.21
2023-04-17T06:17:48.431Z,205.12
2023-04-17T06:18:43.706Z,208.64
2023-04-17T06:19:38.977Z,209.57
2023-04-17T06:20:34.408Z,213.53
2023-04-17T06:21:29.735Z,210.24
2023-04-17T06:22:25.188Z,206.67
2023-04-17T06:23:20.501Z,184.39
2023-04-17T06:24:16.006Z,158.63
2023-04-17T06:25:11.415Z,154.51
2023-04-17T06:26:07.032Z,162.01
2023-04-17T06:27:02.254Z,169.59
2023-04-17T06:27:57.564Z,173.83
2023-04-17T06:28:52.846Z,174.01
2023-04-17T06:29:48.276Z,180.40
2023-04-17T06:30:43.809Z,183.18
2023-04-17T06:31:38.994Z,183.58
2023-04-17T06:32:34.766Z,182.98
2023-04-17T06:33:30.355Z,185.41
2023-04-17T06:34:25.548Z,187.96
2023-04-17T06:35:21.295Z,188.29
2023-04-17T06:36:16.832Z,186.57
2023-04-17T06:37:12.357Z,184.99
2023-04-17T06:38:07.684Z,186.04
2023-04-17T06:39:03.195Z,185.83
2023-04-17T06:39:58.952Z,182.58
2023-04-17T06:40:54.338Z,180.99
2023-04-17T06:41:49.781Z,180.60
2023-04-17T06:42:46.023Z,180.80
2023-04-17T06:43:41.369Z,185.62
2023-04-17T06:44:37.100Z,188.83
2023-04-17T06:45:32.509Z,192.03
2023-04-17T06:46:27.994Z,198.18
2023-04-17T06:47:23.637Z,202.33
2023-04-17T06:48:19.088Z,207.19
2023-04-17T06:49:15.143Z,212.28
2023-04-17T06:50:10.322Z,214.50
2023-04-17T06:51:06.028Z,216.06
2023-04-17T06:52:01.623Z,216.77
2023-04-17T06:52:56.959Z,215.91
2023-04-17T06:53:52.484Z,215.49
2023-04-17T06:54:48.745Z,212.83
2023-04-17T06:55:44.342Z,212.70
2023-04-17T06:56:39.962Z,214.93
2023-04-17T06:57:35.422Z,214.08
2023-04-17T06:58:30.728Z,216.49
2023-04-17T06:59:26.565Z,213.80
2023-04-17T07:00:22.106Z,216.77
2023-04-17T07:01:17.790Z,215.63
2023-04-17T07:02:13.127Z,216.91
2023-04-17T07:03:08.616Z,217.06
2023-04-17T07:04:04.220Z,214.22
2023-04-17T07:04:59.763Z,213.11
2023-04-17T07:05:55.134Z,210.92
2023-04-17T07:06:51.434Z,208.51
2023-04-17T07:07:46.805Z,205.37
2023-04-17T07:08:42.744Z,208.51
2023-04-17T07:09:38.116Z,207.98
2023-04-17T07:10:33.789Z,204.73
2023-04-17T07:11:29.305Z,206.02
2023-04-17T07:12:24.821Z,204.73
2023-04-17T07:13:20.679Z,205.24
2023-04-17T07:14:16.029Z,207.45
2023-04-17T07:15:11.568Z,209.44
2023-04-17T07:16:07.279Z,213.67
2023-04-17T07:17:02.615Z,216.63
2023-04-17T07:17:58.171Z,88.08
2023-04-17T07:18:54.177Z,84.85
2023-04-17T07:19:49.600Z,101.14
2023-04-17T07:20:45.662Z,119.88
2023-04-17T07:21:40.828Z,136.34
2023-04-17T07:22:36.291Z,152.54
2023-04-17T07:23:31.934Z,163.28
2023-04-17T07:24:27.273Z,167.04
2023-04-17T07:25:23.270Z,171.33
2023-04-17T07:26:18.525Z,175.66
2023-04-17T07:27:13.903Z,183.18
2023-04-17T07:28:09.639Z,186.45
2023-04-17T07:29:05.033Z,188.72
2023-04-17T07:30:00.605Z,192.93
2023-04-17T07:30:56.703Z,196.99
2023-04-17T07:31:52.083Z,201.46
2023-04-17T07:32:47.890Z,205.50
2023-04-17T07:33:43.321Z,209.44
2023-04-17T07:34:38.662Z,209.44
2023-04-17T07:35:33.951Z,210.11
2023-04-17T07:36:29.591Z,212.28
2023-04-17T07:37:25.654Z,212.28
2023-04-17T07:38:21.190Z,211.87
2023-04-17T07:39:17.225Z,213.39
2023-04-17T07:40:12.741Z,214.36
2023-04-17T07:41:08.089Z,212.01
2023-04-17T07:42:03.853Z,213.80
2023-04-17T07:42:59.384Z,216.06
2023-04-17T07:43:57.161Z,217.78
2023-04-17T07:44:50.494Z,216.63
2023-04-17T07:45:45.900Z,214.08
2023-04-17T07:46:41.526Z,216.34
2023-04-17T07:47:37.078Z,219.53
2023-04-17T07:48:32.564Z,218.07
2023-04-17T07:49:27.903Z,215.77
2023-04-17T07:50:23.779Z,215.21
2023-04-17T07:51:19.108Z,216.06
2023-04-17T07:52:14.657Z,219.23
2023-04-17T07:53:09.928Z,220.26
2023-04-17T07:54:05.348Z,222.81
2023-04-17T07:55:00.695Z,221.75
2023-04-17T07:55:55.756Z,222.20
2023-04-17T07:56:50.816Z,220.56
2023-04-17T07:57:45.808Z,222.65
2023-04-17T07:58:40.857Z,225.25
2023-04-17T07:59:35.939Z,222.65
2023-04-17T08:00:31.108Z,223.57
2023-04-17T08:01:26.200Z,222.50
2023-04-17T08:02:22.566Z,221.60
2023-04-17T08:03:17.305Z,217.78
2023-04-17T08:04:12.580Z,218.79
2023-04-17T08:05:08.225Z,221.60
2023-04-17T08:06:03.411Z,220.41
2023-04-17T08:06:58.487Z,217.20
2023-04-17T08:07:53.538Z,217.06
2023-04-17T08:08:48.741Z,210.65
2023-04-17T08:09:44.165Z,206.54
2023-04-17T08:10:38.872Z,203.72
2023-04-17T08:11:42.736Z,205.50
2023-04-17T08:12:29.980Z,207.58
2023-04-17T08:13:24.018Z,209.97
2023-04-17T08:14:19.111Z,211.87
2023-04-17T08:15:14.186Z,209.30
2023-04-17T08:16:09.699Z,212.01
2023-04-17T08:17:05.105Z,207.98
2023-04-17T08:18:00.478Z,206.28
2023-04-17T08:18:55.778Z,207.06
2023-04-17T08:19:51.245Z,204.22
2023-04-17T08:20:46.759Z,209.04
2023-04-17T08:21:42.071Z,210.65
2023-04-17T08:22:41.635Z,206.67
2023-04-17T08:23:36.918Z,205.89
2023-04-17T08:24:32.314Z,205.50
2023-04-17T08:25:27.736Z,207.06
2023-04-17T08:26:23.138Z,209.04
2023-04-17T08:27:18.481Z,212.83
2023-04-17T08:28:13.913Z,213.53
2023-04-17T08:29:09.412Z,217.78
2023-04-17T08:30:04.696Z,220.41
2023-04-17T08:31:01.059Z,221.75
2023-04-17T08:32:10.889Z,225.87
2023-04-17T08:32:52.717Z,225.72
2023-04-17T08:33:47.107Z,225.72
2023-04-17T08:34:42.545Z,224.79
2023-04-17T08:35:38.062Z,223.11
2023-04-17T08:36:33.016Z,220.41
2023-04-17T08:37:27.959Z,223.11
2023-04-17T08:38:23.030Z,222.65
2023-04-17T08:39:18.114Z,216.91
2023-04-17T08:40:18.818Z,217.63
2023-04-17T08:41:14.070Z,223.41
2023-04-17T08:42:11.902Z,226.18
2023-04-17T08:43:06.199Z,223.72
2023-04-17T08:44:00.648Z,221.45
2023-04-17T08:44:56.047Z,217.20
2023-04-17T08:45:52.347Z,204.86
2023-04-17T08:46:47.668Z,199.87
2023-04-17T08:47:43.593Z,188.29
2023-04-17T08:48:39.026Z,185.21
2023-04-17T08:49:34.374Z,188.94
2023-04-17T08:50:30.141Z,193.96
2023-04-17T08:51:25.520Z,197.11
2023-04-17T08:52:21.399Z,195.23
2023-04-17T08:53:16.818Z,195.35
2023-04-17T08:54:12.162Z,197.82
2023-04-17T08:55:07.962Z,199.26
2023-04-17T08:56:03.991Z,200.48
2023-04-17T08:56:58.893Z,200.48
2023-04-17T08:57:53.962Z,201.84
2023-04-17T08:58:49.087Z,208.37
2023-04-17T08:59:44.038Z,211.33
2023-04-17T09:00:39.220Z,214.64
2023-04-17T09:01:34.251Z,214.08
2023-04-17T09:02:29.325Z,210.38
2023-04-17T09:03:24.458Z,208.51
2023-04-17T09:04:19.513Z,209.30
2023-04-17T09:05:14.285Z,208.90
2023-04-17T09:06:09.524Z,210.51
2023-04-17T09:07:04.392Z,209.71
2023-04-17T09:08:01.800Z,208.90
2023-04-17T09:08:56.819Z,207.45
2023-04-17T09:09:51.983Z,203.59
2023-04-17T09:10:47.343Z,202.33
2023-04-17T09:11:42.066Z,200.73
2023-04-17T09:12:37.049Z,200.60
2023-04-17T09:13:32.054Z,201.96
2023-04-17T09:14:27.107Z,204.61
2023-04-17T09:15:22.160Z,209.57
2023-04-17T09:16:17.345Z,211.60
2023-04-17T09:17:13.860Z,210.24
2023-04-17T09:18:09.159Z,209.17
2023-04-17T09:19:04.838Z,210.38
2023-04-17T09:20:00.254Z,219.82
2023-04-17T09:20:55.663Z,228.07
2023-04-17T09:21:51.574Z,236.62
2023-04-17T09:22:47.181Z,245.29
2023-04-17T09:23:42.724Z,244.20
2023-04-17T09:24:38.110Z,241.15
2023-04-17T09:25:33.555Z,240.26
2023-04-17T09:26:29.498Z,234.60
2023-04-17T09:27:24.886Z,231.78
2023-04-17T09:28:20.319Z,228.55
2023-04-17T09:29:17.083Z,222.05
2023-04-17T09:30:12.058Z,210.51
2023-04-17T09:31:08.833Z,201.22
2023-04-17T09:32:03.651Z,196.52
2023-04-17T09:32:59.041Z,193.39
2023-04-17T09:33:54.733Z,191.81
2023-04-17T09:34:50.238Z,193.39
2023-04-17T09:35:46.174Z,193.39
2023-04-17T09:36:41.478Z,198.42
2023-04-17T09:37:37.060Z,203.21
2023-04-17T09:38:32.896Z,211.05
2023-04-17T09:39:28.371Z,215.49
2023-04-17T09:40:23.987Z,213.80
2023-04-17T09:41:19.248Z,210.65
2023-04-17T09:42:15.058Z,208.90
2023-04-17T09:43:10.894Z,209.57
2023-04-17T09:44:06.002Z,210.11
2023-04-17T09:45:01.784Z,208.37
2023-04-17T09:45:57.395Z,209.17
2023-04-17T09:46:52.746Z,212.42
2023-04-17T09:47:49.368Z,212.42
2023-04-17T09:48:44.830Z,209.04
2023-04-17T09:49:40.508Z,193.85
2023-04-17T09:50:37.413Z,178.10
2023-04-17T09:51:31.579Z,174.01
2023-04-17T09:52:26.677Z,179.82
2023-04-17T09:53:21.878Z,185.62
2023-04-17T09:54:20.739Z,188.94
2023-04-17T09:55:16.206Z,191.81
2023-04-17T09:56:11.696Z,185.41
2023-04-17T09:57:07.372Z,179.82
2023-04-17T09:58:02.881Z,174.74
2023-04-17T09:58:58.256Z,176.03
2023-04-17T09:59:53.740Z,181.19
2023-04-17T10:00:49.302Z,188.29
2023-04-17T10:01:44.618Z,203.21
2023-04-17T10:02:41.113Z,230.64
2023-04-17T10:03:37.756Z,237.82
2023-04-17T10:04:32.081Z,248.07
2023-04-17T10:05:28.878Z,268.58
2023-04-17T10:06:24.268Z,278.15
2023-04-17T10:07:20.182Z,283.68
2023-04-17T10:08:15.674Z,293.58
2023-04-17T10:09:11.075Z,271.02
2023-04-17T10:10:07.848Z,263.62
2023-04-17T10:11:02.560Z,252.27
2023-04-17T10:11:58.022Z,261.31
2023-04-17T10:12:54.613Z,275.58
2023-04-17T10:13:50.161Z,268.58
2023-04-17T10:14:45.805Z,291.75
2023-04-17T10:15:41.436Z,346.24
2023-04-17T10:16:36.701Z,392.95
2023-04-17T10:17:32.753Z,420.71
2023-04-17T10:18:28.178Z,466.32
2023-04-17T10:19:23.944Z,474.95
2023-04-17T10:20:19.223Z,470.60
2023-04-17T10:21:14.678Z,464.37
2023-04-17T10:22:10.495Z,481.82
2023-04-17T10:23:05.937Z,483.56
2023-04-17T10:24:01.502Z,459.89
2023-04-17T10:24:57.635Z,455.49
2023-04-17T10:25:53.186Z,459.25
2023-04-17T10:26:48.839Z,460.20
2023-04-17T10:27:44.212Z,450.26
2023-04-17T10:28:39.673Z,417.29
2023-04-17T10:29:35.564Z,408.60
2023-04-17T10:30:30.793Z,404.63
2023-04-17T10:31:26.790Z,414.18
2023-04-17T10:32:22.067Z,411.62
2023-04-17T10:33:17.642Z,400.50
2023-04-17T10:34:13.538Z,407.10
2023-04-17T10:35:08.938Z,401.46
2023-04-17T10:36:04.444Z,404.63
2023-04-17T10:37:00.737Z,404.14
2023-04-17T10:37:56.117Z,407.85
2023-04-17T10:38:52.002Z,413.67
2023-04-17T10:39:47.486Z,430.49
2023-04-17T10:40:42.974Z,448.14
2023-04-17T10:41:38.695Z,436.12
2023-04-17T10:42:34.137Z,425.28
2023-04-17T10:43:29.963Z,402.68
2023-04-17T10:44:25.300Z,385.68
2023-04-17T10:45:20.599Z,421.51
2023-04-17T10:46:16.558Z,427.46
2023-04-17T10:48:38.445Z,441.61
2023-04-17T10:49:30.829Z,420.18
2023-04-17T10:50:26.148Z,413.16
2023-04-17T10:51:21.587Z,412.90
2023-04-17T10:52:17.046Z,427.46
2023-04-17T10:53:13.551Z,436.98
2023-04-17T10:54:07.790Z,421.51
2023-04-17T10:55:03.308Z,425.55
2023-04-17T10:55:58.772Z,433.29
2023-04-17T10:56:54.090Z,459.25
2023-04-17T10:57:49.411Z,476.99
2023-04-17T10:58:44.942Z,499.50
2023-04-17T10:59:40.218Z,493.22
2023-04-17T11:00:35.806Z,474.95
2023-04-17T11:01:31.131Z,451.78
2023-04-17T11:02:26.626Z,482.86
2023-04-17T11:03:22.006Z,512.95
2023-04-17T11:04:17.593Z,457.05
2023-04-17T11:05:13.026Z,425.28
2023-04-17T11:06:08.674Z,440.45
2023-04-17T11:07:04.156Z,441.32
2023-04-17T11:07:59.525Z,379.96
2023-04-17T11:08:55.658Z,415.73
2023-04-17T11:09:50.404Z,446.94
2023-04-17T11:10:45.938Z,468.94
2023-04-17T11:11:44.759Z,460.52
2023-04-17T11:12:36.544Z,457.36
2023-04-17T11:13:31.911Z,482.16
2023-04-17T11:14:27.485Z,510.59
2023-04-17T11:15:22.837Z,547.03
2023-04-17T11:16:18.191Z,567.03
2023-04-17T11:17:13.804Z,580.36
2023-04-17T11:18:09.297Z,559.89
2023-04-17T11:19:04.767Z,556.62
2023-04-17T11:20:00.294Z,578.85
2023-04-17T11:20:55.527Z,597.52
2023-04-17T11:21:50.856Z,614.03
2023-04-17T11:22:46.272Z,610.09
2023-04-17T11:23:41.761Z,615.73
2023-04-17T11:24:37.274Z,666.17
2023-04-17T11:25:32.642Z,684.63
2023-04-17T11:26:28.219Z,643.66
2023-04-17T11:27:23.693Z,630.28
2023-04-17T11:28:19.076Z,679.75
2023-04-17T11:29:14.710Z,636.29
2023-04-17T11:30:09.924Z,612.90
2023-04-17T11:31:06.428Z,672.89
2023-04-17T11:32:01.095Z,718.57